Accueil
METAR-TAF:

METAR-TAF

Aéroports :

Aéroport international de Wattay

Vientiane, Laos

latitude: 17-57N, longitude: 102-34E, altitude: 171 m

Observation

Le bulletin a été fait il y a 52 minutes, à 07:00 UTC
Vent 4 kt de sud-ouest
Température 38°C
Humidité 68%
Pression 1002 hPa
Visibilité: 8000 m
Quelques nuages à une hauteur de 2000 ft

METAR: VLVT 190700Z 22004KT 8000 FEW020 38/31 Q1002 NOSIG

Heure: 14:52 (07:52 UTC)

Prévision

Le bulletin a été fait il y a 2 heures et 52 minutes, à 05:00 UTC
Prévision valable du 19 à 06 UTC au 20 à 06 UTC
Vent 4 kt de ouest/sud-ouest
Visibilité: 8000 m
Quelques nuages à une hauteur de 2000 ft
Nuages épars à une hauteur de 5000 ft

TAF: VLVT 190500Z 1906/2006 24004KT 8000 FEW020 SCT050

Observations et prévisions météorologiques de plus de 4000 aéroports (messages METAR et TAF).

Les stations disponibles sont représentées par des disques jaunes et rouges sur la carte.

Passer la souris dessus pour voir le nom de la station.

Cliquer dessus pour voir les observations et prévisions météorologiques.

Pour changer de carte: cliquez sur les boutons verts avec une croix noire pour zoomer, sur le bouton vert avec un tiret pour effectuer un zoom arrière, ou sur les flèches vertes pour les cartes adjacentes.


METAR-TAF: